Time;durP1;ratioP1;P1;durP2;ratioP2;P2;SDS_P1;SDS_P2;PMS_P1;PMS_P2;Temp;Humidity;BMP_temperature;BMP_pressure;BME280_temperature;BME280_humidity;BME280_pressure;Samples;Min_cycle;Max_cycle;Signal;HPM_P1;HPM_P2
2023/06/03 00:02:10;;;;;;;5.93;3.97;;;;;;;;;;5085496;28;20016;-60
2023/06/03 00:04:41;;;;;;;4.72;3.65;;;;;;;;;;5092641;28;20044;-58
2023/06/03 00:07:07;;;;;;;7.28;3.92;;;;;;;;;;5093771;28;20050;-63
2023/06/03 00:09:32;;;;;;;6.25;4.10;;;;;;;;;;5092743;28;20032;-58
2023/06/03 00:11:58;;;;;;;8.00;3.88;;;;;;;;;;5093588;28;20066;-62
2023/06/03 00:14:23;;;;;;;6.65;3.70;;;;;;;;;;5079570;28;20031;-58
2023/06/03 00:16:49;;;;;;;9.10;3.75;;;;;;;;;;5073476;28;20107;-63
2023/06/03 00:19:17;;;;;;;7.85;4.15;;;;;;;;;;5073635;28;20040;-63
2023/06/03 00:21:49;;;;;;;6.35;3.95;;;;;;;;;;5073260;28;20385;-64
2023/06/03 00:24:22;;;;;;;8.38;4.03;;;;;;;;;;5073632;28;20035;-56
2023/06/03 00:26:52;;;;;;;8.52;3.83;;;;;;;;;;5073537;28;20421;-63
2023/06/03 00:29:19;;;;;;;6.77;3.60;;;;;;;;;;5073276;28;20477;-63
2023/06/03 00:31:45;;;;;;;8.82;3.85;;;;;;;;;;5073067;28;20047;-63
2023/06/03 00:34:10;;;;;;;9.48;4.30;;;;;;;;;;5073120;28;20464;-58
2023/06/03 00:36:36;;;;;;;8.32;3.75;;;;;;;;;;5073171;28;20021;-59
2023/06/03 00:39:02;;;;;;;6.10;3.92;;;;;;;;;;5073120;28;20051;-59
2023/06/03 00:41:27;;;;;;;9.05;4.25;;;;;;;;;;5072926;28;20341;-59
2023/06/03 00:43:53;;;;;;;6.45;3.67;;;;;;;;;;5073066;28;20074;-58
2023/06/03 00:46:20;;;;;;;8.85;3.47;;;;;;;;;;5073147;28;20492;-60
2023/06/03 00:48:46;;;;;;;7.22;3.92;;;;;;;;;;5073258;28;20025;-59
2023/06/03 00:51:14;;;;;;;5.43;3.97;;;;;;;;;;5073240;28;20041;-59
2023/06/03 00:53:39;;;;;;;8.85;3.63;;;;;;;;;;5073096;28;20017;-58
2023/06/03 00:56:05;;;;;;;8.23;4.20;;;;;;;;;;5072783;28;20028;-59
2023/06/03 00:58:32;;;;;;;9.48;3.83;;;;;;;;;;5072839;28;20627;-62
2023/06/03 01:00:58;;;;;;;4.15;3.35;;;;;;;;;;5072816;28;20119;-59
2023/06/03 01:03:23;;;;;;;8.57;4.07;;;;;;;;;;5072590;28;20066;-59
2023/06/03 01:06:03;;;;;;;6.30;3.67;;;;;;;;;;5072704;28;20040;-59
2023/06/03 01:08:43;;;;;;;11.33;4.10;;;;;;;;;;5073942;28;20020;-59
2023/06/03 01:11:20;;;;;;;5.10;3.70;;;;;;;;;;5077016;28;20052;-59
2023/06/03 01:14:34;;;;;;;9.02;3.90;;;;;;;;;;5092770;28;20036;-59
2023/06/03 01:17:09;;;;;;;6.40;4.13;;;;;;;;;;5070214;28;20024;-59
2023/06/03 01:19:50;;;;;;;5.90;3.92;;;;;;;;;;5089562;28;20036;-59
2023/06/03 01:22:26;;;;;;;6.07;4.13;;;;;;;;;;5092674;28;20024;-59
2023/06/03 01:25:06;;;;;;;9.90;3.90;;;;;;;;;;5092917;28;20032;-59
2023/06/03 01:27:32;;;;;;;6.00;4.20;;;;;;;;;;5092610;28;20085;-59
2023/06/03 01:29:58;;;;;;;7.95;3.85;;;;;;;;;;5089460;28;20527;-58
2023/06/03 01:32:23;;;;;;;6.40;3.83;;;;;;;;;;5092291;28;20124;-59
2023/06/03 01:34:50;;;;;;;6.93;3.97;;;;;;;;;;5092586;28;20024;-59
2023/06/03 01:37:16;;;;;;;7.78;4.22;;;;;;;;;;5089589;28;20069;-57
2023/06/03 01:39:42;;;;;;;5.85;4.28;;;;;;;;;;5090037;28;20089;-59
2023/06/03 01:42:09;;;;;;;10.15;3.97;;;;;;;;;;5090497;28;20050;-61
2023/06/03 01:44:35;;;;;;;7.82;4.40;;;;;;;;;;5091387;28;20087;-60
2023/06/03 01:47:01;;;;;;;9.18;4.32;;;;;;;;;;5091634;28;20476;-59
2023/06/03 01:49:31;;;;;;;6.28;4.18;;;;;;;;;;5091237;28;20017;-61
2023/06/03 01:51:56;;;;;;;;;;;;;;;;;;5091627;28;20067;-59
2023/06/03 01:54:25;;;;;;;7.43;4.20;;;;;;;;;;5090762;28;19981;-59
2023/06/03 01:56:52;;;;;;;6.10;4.18;;;;;;;;;;5092330;28;20024;-60
2023/06/03 01:59:17;;;;;;;6.45;4.20;;;;;;;;;;5092361;28;20016;-59
2023/06/03 02:01:43;;;;;;;6.07;4.20;;;;;;;;;;5092326;28;20032;-59
2023/06/03 02:04:09;;;;;;;5.53;4.03;;;;;;;;;;5090874;28;20028;-59
2023/06/03 02:06:36;;;;;;;5.63;4.20;;;;;;;;;;5092419;28;20016;-59
2023/06/03 02:09:02;;;;;;;6.57;4.30;;;;;;;;;;5091332;28;20024;-59
2023/06/03 02:11:28;;;;;;;7.25;3.95;;;;;;;;;;5092477;28;20032;-58
2023/06/03 02:13:53;;;;;;;8.75;4.30;;;;;;;;;;5092202;28;20116;-59
2023/06/03 02:16:20;;;;;;;5.25;3.50;;;;;;;;;;5092303;28;20035;-59
2023/06/03 02:18:45;;;;;;;6.65;4.05;;;;;;;;;;5092188;28;20032;-60
2023/06/03 02:21:11;;;;;;;6.45;4.20;;;;;;;;;;5092077;28;20020;-59
2023/06/03 02:23:36;;;;;;;10.73;4.10;;;;;;;;;;5092024;28;20024;-59
2023/06/03 02:26:02;;;;;;;4.95;3.95;;;;;;;;;;5092011;28;20036;-59
2023/06/03 02:28:29;;;;;;;5.35;3.90;;;;;;;;;;5092376;28;20016;-60
2023/06/03 02:30:55;;;;;;;6.03;3.92;;;;;;;;;;5091991;28;20020;-58
2023/06/03 02:33:20;;;;;;;11.25;3.90;;;;;;;;;;5094551;28;20036;-59
2023/06/03 02:35:46;;;;;;;7.93;4.25;;;;;;;;;;5095822;28;20024;-59
2023/06/03 02:38:11;;;;;;;6.00;3.90;;;;;;;;;;5095637;28;20028;-59
2023/06/03 02:40:37;;;;;;;7.05;3.90;;;;;;;;;;5095779;28;20029;-58
2023/06/03 02:43:02;;;;;;;4.78;3.90;;;;;;;;;;5095702;28;20035;-59
2023/06/03 02:45:28;;;;;;;5.90;4.28;;;;;;;;;;5095864;28;20032;-59
2023/06/03 02:47:53;;;;;;;7.30;3.72;;;;;;;;;;5095590;28;20059;-58
2023/06/03 02:50:19;;;;;;;7.55;4.30;;;;;;;;;;5095546;28;20119;-59
2023/06/03 02:52:44;;;;;;;6.65;4.47;;;;;;;;;;5095600;28;20024;-59
2023/06/03 02:55:10;;;;;;;5.07;3.75;;;;;;;;;;5095347;28;20085;-59
2023/06/03 02:57:35;;;;;;;7.10;4.05;;;;;;;;;;5094226;28;20028;-59
2023/06/03 03:00:01;;;;;;;4.65;4.05;;;;;;;;;;5095363;28;20026;-59
2023/06/03 03:02:26;;;;;;;7.97;4.07;;;;;;;;;;5095351;28;20103;-58
2023/06/03 03:04:53;;;;;;;6.45;4.40;;;;;;;;;;5095451;28;20111;-59
2023/06/03 03:07:20;;;;;;;7.30;4.80;;;;;;;;;;5095270;28;20517;-59
2023/06/03 03:09:46;;;;;;;6.40;4.25;;;;;;;;;;5095072;28;20082;-59
2023/06/03 03:12:11;;;;;;;5.10;3.90;;;;;;;;;;5095162;28;20024;-61
2023/06/03 03:14:37;;;;;;;4.78;3.67;;;;;;;;;;5095108;28;20032;-59
2023/06/03 03:17:02;;;;;;;11.63;4.15;;;;;;;;;;5095013;28;20024;-59
2023/06/03 03:19:28;;;;;;;6.10;3.90;;;;;;;;;;5095263;28;20031;-59
2023/06/03 03:21:53;;;;;;;5.65;3.90;;;;;;;;;;5095231;28;20478;-59
2023/06/03 03:24:19;;;;;;;5.10;4.10;;;;;;;;;;5094880;28;20443;-59
2023/06/03 03:26:45;;;;;;;6.55;3.97;;;;;;;;;;5095258;28;20032;-59
2023/06/03 03:29:10;;;;;;;7.05;4.32;;;;;;;;;;5095093;28;20128;-59
2023/06/03 03:31:36;;;;;;;5.18;4.00;;;;;;;;;;5095100;28;20028;-59
2023/06/03 03:34:02;;;;;;;5.43;3.70;;;;;;;;;;5094733;28;20423;-59
2023/06/03 03:36:29;;;;;;;6.13;4.13;;;;;;;;;;5094707;28;20024;-59
2023/06/03 03:39:03;;;;;;;4.05;3.63;;;;;;;;;;5094577;28;20068;-58
2023/06/03 03:41:30;;;;;;;4.78;3.90;;;;;;;;;;5094968;28;20029;-59
2023/06/03 03:43:56;;;;;;;8.80;4.32;;;;;;;;;;5094248;28;20047;-59
2023/06/03 03:46:21;;;;;;;5.63;4.20;;;;;;;;;;5094523;28;20028;-58
2023/06/03 03:48:48;;;;;;;4.70;3.58;;;;;;;;;;5094390;28;20028;-59
2023/06/03 03:51:13;;;;;;;5.10;3.58;;;;;;;;;;5094491;28;20241;-59
2023/06/03 03:53:43;;;;;;;4.93;3.85;;;;;;;;;;5094314;28;20067;-59
2023/06/03 03:56:09;;;;;;;;;;;;;;;;;;5095084;28;20099;-59
2023/06/03 03:58:40;;;;;;;5.90;3.85;;;;;;;;;;5094300;28;19952;-59
2023/06/03 04:01:13;;;;;;;5.22;3.90;;;;;;;;;;5094193;28;20062;-59
2023/06/03 04:03:40;;;;;;;6.22;4.20;;;;;;;;;;5093016;28;20032;-61
2023/06/03 04:06:32;;;;;;;4.07;3.67;;;;;;;;;;5094111;28;20035;-59
2023/06/03 04:08:58;;;;;;;4.90;4.20;;;;;;;;;;5093988;28;20559;-59
2023/06/03 04:11:41;;;;;;;4.68;3.72;;;;;;;;;;5093859;28;20127;-59
2023/06/03 04:14:08;;;;;;;7.18;4.18;;;;;;;;;;5094214;28;20028;-59
2023/06/03 04:16:42;;;;;;;5.20;3.83;;;;;;;;;;5093892;28;20028;-59
2023/06/03 04:19:15;;;;;;;5.50;3.78;;;;;;;;;;5093892;28;20133;-59
2023/06/03 04:21:41;;;;;;;9.07;3.75;;;;;;;;;;5093751;28;20028;-61
2023/06/03 04:24:07;;;;;;;5.32;3.92;;;;;;;;;;5093640;28;20039;-58
2023/06/03 04:26:34;;;;;;;5.78;4.00;;;;;;;;;;5093635;28;20589;-58
2023/06/03 04:29:00;;;;;;;6.45;3.90;;;;;;;;;;5093647;28;20046;-59
2023/06/03 04:31:25;;;;;;;5.35;3.42;;;;;;;;;;5093547;28;20074;-59
2023/06/03 04:33:51;;;;;;;5.35;4.00;;;;;;;;;;5093835;28;20032;-59
2023/06/03 04:36:16;;;;;;;4.30;3.90;;;;;;;;;;5093708;28;20074;-58
2023/06/03 04:38:43;;;;;;;4.30;3.63;;;;;;;;;;5093491;28;20123;-60
2023/06/03 04:41:12;;;;;;;6.65;3.83;;;;;;;;;;5093343;28;20533;-59
2023/06/03 04:43:38;;;;;;;6.47;3.72;;;;;;;;;;5093630;28;20028;-59
2023/06/03 04:46:06;;;;;;;4.30;3.90;;;;;;;;;;5093615;28;20034;-59
2023/06/03 04:48:33;;;;;;;5.53;3.72;;;;;;;;;;5093639;28;20097;-59
2023/06/03 04:51:01;;;;;;;6.50;4.10;;;;;;;;;;5093539;28;20064;-59
2023/06/03 04:53:28;;;;;;;5.20;3.92;;;;;;;;;;5093516;28;20036;-59
2023/06/03 04:55:53;;;;;;;5.15;3.60;;;;;;;;;;5092741;28;20451;-58
2023/06/03 04:58:19;;;;;;;4.65;3.78;;;;;;;;;;5093143;28;20055;-59
2023/06/03 05:00:48;;;;;;;5.13;3.63;;;;;;;;;;5093027;28;20611;-59
2023/06/03 05:03:16;;;;;;;5.25;3.55;;;;;;;;;;5093229;28;20074;-59
2023/06/03 05:05:43;;;;;;;5.43;3.80;;;;;;;;;;5093165;28;20031;-59
2023/06/03 05:08:11;;;;;;;5.85;3.75;;;;;;;;;;5093272;28;20111;-61
2023/06/03 05:10:37;;;;;;;4.88;3.92;;;;;;;;;;5092904;28;20059;-59
2023/06/03 05:13:05;;;;;;;5.05;3.72;;;;;;;;;;5092897;28;20063;-59
2023/06/03 05:15:33;;;;;;;6.20;4.30;;;;;;;;;;5092871;28;20070;-59
2023/06/03 05:18:00;;;;;;;5.18;4.22;;;;;;;;;;5092780;28;20028;-60
2023/06/03 05:20:25;;;;;;;5.25;4.13;;;;;;;;;;5092664;28;20031;-58
2023/06/03 05:22:51;;;;;;;6.97;3.80;;;;;;;;;;5093113;28;20024;-59
2023/06/03 05:25:16;;;;;;;4.60;4.20;;;;;;;;;;5092535;28;20432;-59
2023/06/03 05:27:42;;;;;;;6.35;4.38;;;;;;;;;;5091549;28;20031;-59
2023/06/03 05:30:08;;;;;;;4.97;3.70;;;;;;;;;;5092637;28;20016;-58
2023/06/03 05:32:33;;;;;;;5.72;3.42;;;;;;;;;;5092807;28;20055;-59
2023/06/03 05:34:59;;;;;;;5.68;3.70;;;;;;;;;;5092637;28;20468;-59
2023/06/03 05:37:24;;;;;;;4.35;3.90;;;;;;;;;;5092916;28;20028;-59
2023/06/03 05:39:50;;;;;;;4.25;3.80;;;;;;;;;;5092258;28;20048;-59
2023/06/03 05:42:15;;;;;;;4.70;3.72;;;;;;;;;;5092502;28;20063;-59
2023/06/03 05:44:41;;;;;;;4.43;3.65;;;;;;;;;;5092320;28;20042;-59
2023/06/03 05:47:06;;;;;;;5.18;3.42;;;;;;;;;;5092497;28;20059;-59
2023/06/03 05:49:32;;;;;;;4.35;3.60;;;;;;;;;;5092632;28;20032;-62
2023/06/03 05:51:57;;;;;;;5.28;3.85;;;;;;;;;;5092350;28;20533;-59
2023/06/03 05:54:28;;;;;;;5.07;4.07;;;;;;;;;;5092527;28;20031;-59
2023/06/03 05:56:53;;;;;;;;;;;;;;;;;;5093060;28;20027;-59
2023/06/03 05:59:19;;;;;;;4.57;4.05;;;;;;;;;;5092168;28;19939;-59
2023/06/03 06:01:44;;;;;;;3.90;3.50;;;;;;;;;;5092257;28;20028;-59
2023/06/03 06:04:10;;;;;;;4.50;3.85;;;;;;;;;;5092100;28;20020;-59
2023/06/03 06:06:35;;;;;;;4.55;3.80;;;;;;;;;;5093535;28;20031;-59
2023/06/03 06:09:01;;;;;;;6.00;3.78;;;;;;;;;;5096323;28;20487;-59
2023/06/03 06:11:26;;;;;;;3.95;3.55;;;;;;;;;;5096561;28;20047;-59
2023/06/03 06:13:52;;;;;;;4.30;3.78;;;;;;;;;;5096239;28;20054;-59
2023/06/03 06:16:17;;;;;;;5.70;4.07;;;;;;;;;;5096518;28;20065;-59
2023/06/03 06:18:43;;;;;;;6.47;3.83;;;;;;;;;;5096390;28;20455;-59
2023/06/03 06:21:09;;;;;;;6.75;3.78;;;;;;;;;;5096255;28;20540;-61
2023/06/03 06:23:34;;;;;;;3.92;3.53;;;;;;;;;;5095947;28;20069;-59
2023/06/03 06:26:00;;;;;;;5.32;3.67;;;;;;;;;;5096644;28;20107;-59
2023/06/03 06:28:26;;;;;;;6.55;3.75;;;;;;;;;;5095987;28;20407;-59
2023/06/03 06:31:00;;;;;;;4.50;3.78;;;;;;;;;;5095960;28;20361;-59
2023/06/03 06:33:27;;;;;;;4.97;3.75;;;;;;;;;;5095928;28;20482;-59
2023/06/03 06:35:53;;;;;;;4.15;3.67;;;;;;;;;;5096152;28;20035;-59
2023/06/03 06:38:19;;;;;;;3.67;3.33;;;;;;;;;;5095822;28;20535;-59
2023/06/03 06:40:45;;;;;;;3.92;3.47;;;;;;;;;;5095833;28;20564;-58
2023/06/03 06:43:16;;;;;;;6.20;3.70;;;;;;;;;;5095693;28;20028;-61
2023/06/03 06:45:42;;;;;;;4.18;3.55;;;;;;;;;;5095604;28;20532;-59
2023/06/03 06:48:10;;;;;;;5.38;3.67;;;;;;;;;;5095560;28;20057;-59
2023/06/03 06:50:50;;;;;;;4.13;3.58;;;;;;;;;;5095552;28;20032;-61
2023/06/03 06:53:18;;;;;;;5.07;3.55;;;;;;;;;;5095501;28;20031;-61
2023/06/03 06:56:03;;;;;;;4.00;3.60;;;;;;;;;;5095460;28;20247;-59
2023/06/03 06:58:36;;;;;;;4.40;3.50;;;;;;;;;;5095816;28;20028;-59
2023/06/03 07:01:06;;;;;;;4.72;3.50;;;;;;;;;;5095339;28;20027;-60
2023/06/03 07:03:32;;;;;;;3.85;3.35;;;;;;;;;;5095252;28;20031;-59
2023/06/03 07:05:59;;;;;;;5.35;3.40;;;;;;;;;;5095190;28;20131;-59
2023/06/03 07:08:25;;;;;;;4.13;3.38;;;;;;;;;;5095527;28;20111;-59
2023/06/03 07:10:55;;;;;;;5.25;3.67;;;;;;;;;;5095116;28;20036;-61
2023/06/03 07:13:20;;;;;;;4.47;3.55;;;;;;;;;;5095412;28;20429;-59
2023/06/03 07:15:46;;;;;;;4.03;3.30;;;;;;;;;;5095267;28;20035;-59
2023/06/03 07:18:12;;;;;;;4.28;3.55;;;;;;;;;;5094331;28;20039;-61
2023/06/03 07:20:38;;;;;;;4.10;3.45;;;;;;;;;;5093222;28;20024;-58
2023/06/03 07:23:11;;;;;;;4.80;3.63;;;;;;;;;;5091789;28;20024;-61
2023/06/03 07:25:49;;;;;;;5.13;4.00;;;;;;;;;;5089339;28;20414;-59
2023/06/03 07:28:17;;;;;;;6.32;3.70;;;;;;;;;;5090151;28;20023;-63
2023/06/03 07:30:44;;;;;;;3.72;3.42;;;;;;;;;;5089731;28;20027;-64
2023/06/03 07:33:21;;;;;;;4.13;3.53;;;;;;;;;;5093610;28;20089;-60
2023/06/03 07:35:54;;;;;;;3.72;3.30;;;;;;;;;;5094453;28;20031;-61
2023/06/03 07:38:55;;;;;;;3.50;3.20;;;;;;;;;;5094298;28;20032;-60
2023/06/03 07:41:41;;;;;;;5.65;2.70;;;;;;;;;;5074369;28;20488;-60
2023/06/03 07:44:09;;;;;;;3.65;2.13;;;;;;;;;;5089674;28;20074;-60
2023/06/03 07:46:38;;;;;;;6.18;2.30;;;;;;;;;;5092684;28;20028;-59
2023/06/03 07:49:07;;;;;;;3.95;2.30;;;;;;;;;;5092589;28;20020;-60
2023/06/03 07:51:33;;;;;;;2.35;1.80;;;;;;;;;;5092605;28;20391;-62
2023/06/03 07:53:59;;;;;;;2.53;2.13;;;;;;;;;;5092689;28;20178;-61
2023/06/03 07:56:27;;;;;;;6.18;2.20;;;;;;;;;;5092541;28;20253;-59
2023/06/03 07:58:52;;;;;;;5.50;1.92;;;;;;;;;;5092560;28;20031;-60
2023/06/03 08:01:23;;;;;;;5.47;2.30;;;;;;;;;;5092663;28;20024;-63
2023/06/03 08:03:48;;;;;;;7.38;1.88;;;;;;;;;;5074247;28;20058;-59
2023/06/03 08:06:14;;;;;;;6.88;1.90;;;;;;;;;;5072361;28;20047;-60
2023/06/03 08:08:40;;;;;;;15.57;3.30;;;;;;;;;;5085254;28;20110;-59
2023/06/03 08:11:08;;;;;;;8.73;2.30;;;;;;;;;;5091600;28;20103;-61
2023/06/03 08:13:33;;;;;;;4.40;2.45;;;;;;;;;;5090561;28;20512;-60
2023/06/03 08:16:00;;;;;;;12.95;3.42;;;;;;;;;;5088517;28;20031;-61
2023/06/03 08:18:50;;;;;;;9.23;2.45;;;;;;;;;;5090953;28;20499;-59
2023/06/03 08:21:17;;;;;;;10.55;2.85;;;;;;;;;;5091086;28;20056;-59
2023/06/03 08:23:43;;;;;;;8.00;2.03;;;;;;;;;;5092047;28;20032;-60
2023/06/03 08:26:10;;;;;;;5.32;2.13;;;;;;;;;;5092065;28;20111;-59
2023/06/03 08:28:40;;;;;;;8.82;2.70;;;;;;;;;;5091835;28;20027;-62
2023/06/03 08:31:06;;;;;;;8.15;2.72;;;;;;;;;;5091048;28;20020;-62
2023/06/03 08:33:31;;;;;;;8.77;2.47;;;;;;;;;;5091822;28;20036;-61
2023/06/03 08:35:57;;;;;;;8.25;2.60;;;;;;;;;;5091972;28;20044;-60
2023/06/03 08:38:22;;;;;;;8.60;2.33;;;;;;;;;;5091617;28;20054;-61
2023/06/03 08:40:50;;;;;;;8.77;2.28;;;;;;;;;;5092042;28;20028;-60
2023/06/03 08:43:16;;;;;;;4.47;2.20;;;;;;;;;;5091176;28;20016;-60
2023/06/03 08:46:05;;;;;;;5.57;2.40;;;;;;;;;;5091384;28;20039;-59
2023/06/03 08:48:50;;;;;;;6.43;2.33;;;;;;;;;;5091676;28;20487;-60
2023/06/03 08:51:20;;;;;;;11.80;2.35;;;;;;;;;;5091685;28;20024;-60
2023/06/03 08:53:50;;;;;;;5.72;2.42;;;;;;;;;;5091528;28;20043;-60
2023/06/03 08:56:18;;;;;;;13.18;2.90;;;;;;;;;;5091498;28;20028;-63
2023/06/03 08:58:47;;;;;;;4.68;2.22;;;;;;;;;;5088496;28;20027;-59
2023/06/03 09:01:15;;;;;;;13.27;2.80;;;;;;;;;;5090695;28;20575;-59
2023/06/03 09:03:43;;;;;;;7.47;2.47;;;;;;;;;;5090665;28;20066;-60
2023/06/03 09:06:09;;;;;;;4.45;2.10;;;;;;;;;;5089927;28;20024;-59
2023/06/03 09:08:37;;;;;;;6.50;2.70;;;;;;;;;;5090088;28;20044;-62
2023/06/03 09:11:04;;;;;;;14.68;2.22;;;;;;;;;;5090511;28;20028;-59
2023/06/03 09:13:33;;;;;;;8.18;2.55;;;;;;;;;;5091239;28;20043;-63
2023/06/03 09:15:59;;;;;;;8.55;2.10;;;;;;;;;;5089935;28;20035;-63
2023/06/03 09:18:25;;;;;;;7.70;2.42;;;;;;;;;;5091126;28;20035;-61
2023/06/03 09:20:50;;;;;;;7.38;2.50;;;;;;;;;;5091343;28;20063;-62
2023/06/03 09:23:16;;;;;;;3.78;1.90;;;;;;;;;;5090960;28;20056;-60
2023/06/03 09:25:45;;;;;;;2.88;2.00;;;;;;;;;;5091364;28;20073;-60
2023/06/03 09:28:11;;;;;;;5.47;2.00;;;;;;;;;;5091254;28;20035;-60
2023/06/03 09:30:37;;;;;;;7.57;2.10;;;;;;;;;;5091040;28;20027;-59
2023/06/03 09:33:02;;;;;;;7.30;2.42;;;;;;;;;;5090938;28;20028;-60
2023/06/03 09:35:28;;;;;;;5.40;2.00;;;;;;;;;;5091290;28;20032;-59
2023/06/03 09:37:59;;;;;;;5.88;2.40;;;;;;;;;;5090871;28;20383;-60
2023/06/03 09:40:31;;;;;;;8.35;2.58;;;;;;;;;;5090794;28;20130;-62
2023/06/03 09:42:57;;;;;;;11.05;2.00;;;;;;;;;;5089222;28;20077;-63
2023/06/03 09:45:34;;;;;;;10.30;2.30;;;;;;;;;;5089624;28;20425;-64
2023/06/03 09:48:01;;;;;;;3.75;2.22;;;;;;;;;;5091094;28;20421;-65
2023/06/03 09:50:28;;;;;;;5.90;2.35;;;;;;;;;;5090610;28;20031;-65
2023/06/03 09:52:54;;;;;;;5.55;2.05;;;;;;;;;;5090844;28;20065;-62
2023/06/03 09:55:22;;;;;;;6.55;1.80;;;;;;;;;;5091633;28;20028;-62
2023/06/03 09:58:11;;;;;;;3.97;1.70;;;;;;;;;;5090418;28;20021;-62
2023/06/03 10:00:50;;;;;;;4.20;2.30;;;;;;;;;;5090875;28;20062;-62
2023/06/03 10:03:19;;;;;;;3.95;2.15;;;;;;;;;;5091888;28;20020;-64
2023/06/03 10:05:45;;;;;;;11.63;2.00;;;;;;;;;;5092186;28;20107;-63
2023/06/03 10:08:11;;;;;;;4.50;2.15;;;;;;;;;;5090050;28;20158;-61
2023/06/03 10:11:02;;;;;;;4.07;2.20;;;;;;;;;;5090216;28;20042;-61
2023/06/03 10:13:28;;;;;;;7.63;1.92;;;;;;;;;;5091388;28;20456;-61
2023/06/03 10:15:53;;;;;;;5.63;2.35;;;;;;;;;;5092362;28;20054;-64
2023/06/03 10:18:35;;;;;;;12.38;2.53;;;;;;;;;;5092193;28;20024;-65
2023/06/03 10:21:06;;;;;;;2.60;2.17;;;;;;;;;;5092070;28;20463;-65
2023/06/03 10:23:33;;;;;;;3.80;2.15;;;;;;;;;;5090620;28;20530;-65
2023/06/03 10:25:59;;;;;;;3.75;2.60;;;;;;;;;;5090062;28;20029;-66
2023/06/03 10:28:25;;;;;;;4.28;2.28;;;;;;;;;;5090495;28;20020;-64
2023/06/03 10:30:52;;;;;;;4.95;2.50;;;;;;;;;;5090861;28;20027;-65
2023/06/03 10:33:19;;;;;;;2.53;2.33;;;;;;;;;;5091513;28;20475;-65
2023/06/03 10:35:46;;;;;;;4.38;2.90;;;;;;;;;;5091826;28;20394;-65
2023/06/03 10:38:13;;;;;;;6.43;3.40;;;;;;;;;;5091289;28;20107;-66
2023/06/03 10:40:38;;;;;;;4.15;3.25;;;;;;;;;;5091859;28;20016;-66
2023/06/03 10:43:05;;;;;;;3.88;3.08;;;;;;;;;;5091511;28;20074;-65
2023/06/03 10:45:31;;;;;;;5.40;3.15;;;;;;;;;;5091791;28;20471;-65
2023/06/03 10:48:00;;;;;;;3.85;3.05;;;;;;;;;;5091924;28;20032;-65
2023/06/03 10:50:38;;;;;;;3.53;3.22;;;;;;;;;;5092281;28;20016;-65
2023/06/03 10:53:19;;;;;;;4.82;3.20;;;;;;;;;;5091919;28;20028;-65
2023/06/03 10:56:22;;;;;;;5.95;3.10;;;;;;;;;;5095582;28;20208;-65
2023/06/03 10:59:00;;;;;;;4.13;3.22;;;;;;;;;;5095613;28;20114;-65
2023/06/03 11:01:58;;;;;;;4.88;3.35;;;;;;;;;;5095604;28;20042;-65
2023/06/03 11:04:24;;;;;;;3.63;3.30;;;;;;;;;;5095572;28;20069;-65
2023/06/03 11:06:50;;;;;;;4.63;3.35;;;;;;;;;;5095730;28;20437;-64
2023/06/03 11:09:35;;;;;;;3.60;3.17;;;;;;;;;;5095331;28;20169;-64
2023/06/03 11:12:09;;;;;;;5.70;3.20;;;;;;;;;;5095419;28;20069;-65
2023/06/03 11:14:41;;;;;;;4.22;3.25;;;;;;;;;;5095322;28;20027;-66
2023/06/03 11:17:09;;;;;;;6.63;3.30;;;;;;;;;;5095242;28;20452;-65
2023/06/03 11:19:44;;;;;;;7.28;3.72;;;;;;;;;;5095110;28;20035;-64
2023/06/03 11:22:11;;;;;;;5.35;3.10;;;;;;;;;;5095108;28;20021;-65
2023/06/03 11:24:42;;;;;;;4.10;3.28;;;;;;;;;;5095252;28;20115;-65
2023/06/03 11:29:46;;;;;;;4.53;3.33;;;;;;;;;;5094904;28;20020;-66
2023/06/03 11:32:16;;;;;;;3.72;3.03;;;;;;;;;;5094833;28;20127;-65
2023/06/03 11:34:46;;;;;;;4.13;3.05;;;;;;;;;;5095007;28;20024;-65
2023/06/03 11:37:19;;;;;;;4.38;3.13;;;;;;;;;;5095195;28;20024;-65
2023/06/03 11:40:05;;;;;;;3.58;2.90;;;;;;;;;;5094795;28;20076;-64
2023/06/03 11:42:51;;;;;;;5.22;3.03;;;;;;;;;;5094814;28;20027;-64
2023/06/03 11:45:20;;;;;;;6.13;3.40;;;;;;;;;;5094309;28;20062;-64
2023/06/03 11:47:48;;;;;;;6.50;3.70;;;;;;;;;;5094526;28;20070;-65
2023/06/03 11:50:15;;;;;;;6.03;3.20;;;;;;;;;;5094548;28;20039;-66
2023/06/03 11:52:40;;;;;;;3.50;3.20;;;;;;;;;;5094507;28;20028;-65
2023/06/03 11:55:06;;;;;;;5.35;3.25;;;;;;;;;;5094573;28;20106;-65
2023/06/03 11:57:33;;;;;;;3.80;3.20;;;;;;;;;;5094679;28;20126;-66
2023/06/03 12:00:08;;;;;;;5.03;3.35;;;;;;;;;;5094827;28;20380;-65
2023/06/03 12:02:37;;;;;;;4.28;3.20;;;;;;;;;;5094532;28;20114;-65
2023/06/03 12:05:06;;;;;;;6.05;2.92;;;;;;;;;;5094105;28;20153;-65
2023/06/03 12:07:32;;;;;;;6.65;3.53;;;;;;;;;;5094456;28;20031;-65
2023/06/03 12:09:58;;;;;;;4.57;3.20;;;;;;;;;;5094492;28;20028;-64
2023/06/03 12:12:23;;;;;;;4.05;3.42;;;;;;;;;;5094386;28;20403;-65
2023/06/03 12:14:49;;;;;;;3.72;3.20;;;;;;;;;;5094277;28;20024;-65
2023/06/03 12:17:16;;;;;;;5.32;2.97;;;;;;;;;;5094260;28;20498;-64
2023/06/03 12:19:47;;;;;;;4.38;3.42;;;;;;;;;;5094239;28;20025;-64
2023/06/03 12:22:13;;;;;;;3.67;2.95;;;;;;;;;;5093881;28;20026;-66
2023/06/03 12:24:42;;;;;;;4.18;3.33;;;;;;;;;;5093970;28;20032;-64
2023/06/03 12:27:34;;;;;;;4.13;3.00;;;;;;;;;;5093858;28;20032;-65
2023/06/03 12:30:01;;;;;;;3.63;2.90;;;;;;;;;;5092560;28;20032;-65
2023/06/03 12:32:31;;;;;;;3.15;2.85;;;;;;;;;;5093951;28;20059;-65
2023/06/03 12:34:57;;;;;;;5.63;3.13;;;;;;;;;;5093883;28;20020;-65
2023/06/03 12:37:28;;;;;;;5.53;3.38;;;;;;;;;;5093642;28;20094;-64
2023/06/03 12:39:54;;;;;;;4.93;3.38;;;;;;;;;;5093441;28;20040;-65
2023/06/03 12:42:33;;;;;;;3.47;3.10;;;;;;;;;;5093838;28;20032;-65
2023/06/03 12:44:58;;;;;;;3.30;3.00;;;;;;;;;;5093637;28;20031;-66
2023/06/03 12:47:24;;;;;;;6.35;3.28;;;;;;;;;;5093484;28;20517;-65
2023/06/03 12:50:07;;;;;;;3.60;2.97;;;;;;;;;;5093434;28;20024;-65
2023/06/03 12:52:38;;;;;;;3.47;3.17;;;;;;;;;;5093790;28;20052;-64
2023/06/03 12:55:09;;;;;;;3.17;2.88;;;;;;;;;;5093927;28;20016;-65
2023/06/03 12:57:37;;;;;;;3.25;2.72;;;;;;;;;;5093654;28;20027;-65
2023/06/03 13:00:12;;;;;;;5.20;3.10;;;;;;;;;;5093155;28;20108;-65
2023/06/03 13:02:39;;;;;;;4.25;2.90;;;;;;;;;;5093205;28;20028;-64
2023/06/03 13:05:09;;;;;;;4.07;3.45;;;;;;;;;;5093048;28;20046;-66
2023/06/03 13:07:36;;;;;;;3.10;2.80;;;;;;;;;;5093096;28;20056;-65
2023/06/03 13:10:03;;;;;;;3.40;2.90;;;;;;;;;;5093296;28;20110;-65
2023/06/03 13:12:30;;;;;;;2.88;2.65;;;;;;;;;;5093009;28;20098;-65
2023/06/03 13:14:57;;;;;;;3.67;3.17;;;;;;;;;;5092977;28;20043;-64
2023/06/03 13:17:23;;;;;;;5.25;3.00;;;;;;;;;;5092729;28;20020;-65
2023/06/03 13:19:49;;;;;;;4.10;3.20;;;;;;;;;;5092856;28;20027;-64
2023/06/03 13:22:16;;;;;;;3.33;3.03;;;;;;;;;;5092922;28;20028;-65
2023/06/03 13:24:43;;;;;;;4.60;3.38;;;;;;;;;;5092686;28;20387;-65
2023/06/03 13:27:08;;;;;;;3.22;2.90;;;;;;;;;;5093096;28;20024;-65
2023/06/03 13:29:34;;;;;;;3.63;2.90;;;;;;;;;;5092764;28;20131;-65
2023/06/03 13:32:00;;;;;;;3.97;2.95;;;;;;;;;;5092965;28;20028;-65
2023/06/03 13:34:26;;;;;;;5.22;2.80;;;;;;;;;;5092947;28;20375;-65
2023/06/03 13:36:51;;;;;;;3.75;3.10;;;;;;;;;;5092634;28;20035;-65
2023/06/03 13:39:21;;;;;;;3.30;3.00;;;;;;;;;;5092348;28;20054;-64
2023/06/03 13:41:49;;;;;;;5.13;3.00;;;;;;;;;;5092685;28;20425;-65
2023/06/03 13:44:15;;;;;;;3.97;2.97;;;;;;;;;;5092464;28;20077;-65
2023/06/03 13:46:41;;;;;;;3.15;2.85;;;;;;;;;;5092594;28;20115;-65
2023/06/03 13:49:06;;;;;;;3.60;3.30;;;;;;;;;;5093154;28;20031;-64
2023/06/03 13:51:32;;;;;;;3.75;3.08;;;;;;;;;;5092580;28;20016;-64
2023/06/03 13:53:57;;;;;;;3.88;2.92;;;;;;;;;;5092470;28;20491;-65
2023/06/03 13:56:23;;;;;;;3.53;2.92;;;;;;;;;;5092532;28;20020;-65
2023/06/03 13:58:48;;;;;;;4.05;2.78;;;;;;;;;;5092432;28;20047;-65
2023/06/03 14:01:15;;;;;;;5.47;3.00;;;;;;;;;;5092457;28;20077;-65
2023/06/03 14:03:41;;;;;;;5.70;2.95;;;;;;;;;;5092326;28;20023;-65
2023/06/03 14:06:07;;;;;;;4.88;3.03;;;;;;;;;;5092707;28;20024;-65
2023/06/03 14:08:33;;;;;;;4.45;2.90;;;;;;;;;;5092080;28;20020;-65
2023/06/03 14:10:59;;;;;;;2.88;2.55;;;;;;;;;;5092611;28;20016;-65
2023/06/03 14:13:25;;;;;;;4.55;2.85;;;;;;;;;;5092284;28;20495;-64
2023/06/03 14:15:51;;;;;;;4.13;3.42;;;;;;;;;;5092250;28;20016;-65
2023/06/03 14:18:16;;;;;;;3.28;2.95;;;;;;;;;;5092807;28;20054;-65
2023/06/03 14:20:42;;;;;;;3.20;2.90;;;;;;;;;;5092465;28;20039;-65
2023/06/03 14:23:07;;;;;;;3.28;2.97;;;;;;;;;;5092468;28;20479;-65
2023/06/03 14:25:33;;;;;;;3.88;2.75;;;;;;;;;;5092055;28;20365;-65
2023/06/03 14:28:02;;;;;;;4.93;3.00;;;;;;;;;;5092088;28;20027;-65
2023/06/03 14:30:29;;;;;;;3.65;3.10;;;;;;;;;;5096085;28;20028;-65
2023/06/03 14:32:55;;;;;;;3.63;3.00;;;;;;;;;;5096304;28;20035;-65
2023/06/03 14:35:21;;;;;;;4.03;2.67;;;;;;;;;;5096306;28;20027;-65
2023/06/03 14:37:46;;;;;;;3.50;2.90;;;;;;;;;;5094599;28;20503;-65
2023/06/03 14:40:12;;;;;;;3.30;2.78;;;;;;;;;;5095776;28;20048;-66
2023/06/03 14:42:39;;;;;;;3.67;2.92;;;;;;;;;;5095741;28;20032;-65
2023/06/03 14:45:06;;;;;;;3.13;2.83;;;;;;;;;;5095663;28;20103;-65
2023/06/03 14:47:31;;;;;;;4.07;3.10;;;;;;;;;;5095677;28;20568;-65
2023/06/03 14:49:57;;;;;;;4.20;3.00;;;;;;;;;;5095949;28;20099;-66
2023/06/03 14:52:23;;;;;;;5.28;2.88;;;;;;;;;;5095632;28;20028;-65
2023/06/03 14:54:49;;;;;;;4.45;3.10;;;;;;;;;;5095567;28;20024;-65